sensor_id;sensor_type;location;lat;lon;timestamp;temperature;humidity
75621;DHT22;64574;48.506;-2.750;2023-07-09T00:00:54;19.00;69.00
75621;DHT22;64574;48.506;-2.750;2023-07-09T00:03:20;18.90;69.10
75621;DHT22;64574;48.506;-2.750;2023-07-09T00:05:48;18.80;69.60
75621;DHT22;64574;48.506;-2.750;2023-07-09T00:08:28;18.90;69.40
75621;DHT22;64574;48.506;-2.750;2023-07-09T00:10:55;18.90;69.00
75621;DHT22;64574;48.506;-2.750;2023-07-09T00:13:22;18.80;69.30
75621;DHT22;64574;48.506;-2.750;2023-07-09T00:15:48;18.80;69.30
75621;DHT22;64574;48.506;-2.750;2023-07-09T00:18:13;18.50;69.80
75621;DHT22;64574;48.506;-2.750;2023-07-09T00:20:39;18.50;70.50
75621;DHT22;64574;48.506;-2.750;2023-07-09T00:23:09;18.50;70.20
75621;DHT22;64574;48.506;-2.750;2023-07-09T00:25:35;18.40;70.40
75621;DHT22;64574;48.506;-2.750;2023-07-09T00:28:01;18.50;69.90
75621;DHT22;64574;48.506;-2.750;2023-07-09T00:30:27;18.50;70.00
75621;DHT22;64574;48.506;-2.750;2023-07-09T00:32:53;18.30;70.30
75621;DHT22;64574;48.506;-2.750;2023-07-09T00:35:20;18.20;70.70
75621;DHT22;64574;48.506;-2.750;2023-07-09T00:37:47;18.10;70.90
75621;DHT22;64574;48.506;-2.750;2023-07-09T00:40:19;18.20;70.80
75621;DHT22;64574;48.506;-2.750;2023-07-09T00:42:48;18.10;70.90
75621;DHT22;64574;48.506;-2.750;2023-07-09T00:45:19;18.00;71.20
75621;DHT22;64574;48.506;-2.750;2023-07-09T00:47:55;18.00;70.90
75621;DHT22;64574;48.506;-2.750;2023-07-09T00:50:27;18.00;70.90
75621;DHT22;64574;48.506;-2.750;2023-07-09T00:52:58;18.00;70.70
75621;DHT22;64574;48.506;-2.750;2023-07-09T00:55:30;17.90;71.00
75621;DHT22;64574;48.506;-2.750;2023-07-09T00:58:04;18.00;70.90
75621;DHT22;64574;48.506;-2.750;2023-07-09T01:00:41;18.00;70.70
75621;DHT22;64574;48.506;-2.750;2023-07-09T01:03:15;18.00;70.20
75621;DHT22;64574;48.506;-2.750;2023-07-09T01:05:45;17.90;70.80
75621;DHT22;64574;48.506;-2.750;2023-07-09T01:08:11;18.00;70.20
75621;DHT22;64574;48.506;-2.750;2023-07-09T01:10:37;18.10;69.80
75621;DHT22;64574;48.506;-2.750;2023-07-09T01:13:05;18.20;69.50
75621;DHT22;64574;48.506;-2.750;2023-07-09T01:15:34;18.20;69.40
75621;DHT22;64574;48.506;-2.750;2023-07-09T01:18:05;18.10;69.30
75621;DHT22;64574;48.506;-2.750;2023-07-09T01:20:31;18.00;69.80
75621;DHT22;64574;48.506;-2.750;2023-07-09T01:22:57;18.00;69.80
75621;DHT22;64574;48.506;-2.750;2023-07-09T01:25:26;17.80;70.20
75621;DHT22;64574;48.506;-2.750;2023-07-09T01:27:53;17.80;70.00
75621;DHT22;64574;48.506;-2.750;2023-07-09T01:30:37;17.90;69.70
75621;DHT22;64574;48.506;-2.750;2023-07-09T01:33:03;18.00;69.60
75621;DHT22;64574;48.506;-2.750;2023-07-09T01:35:34;17.70;70.20
75621;DHT22;64574;48.506;-2.750;2023-07-09T01:38:01;17.50;70.50
75621;DHT22;64574;48.506;-2.750;2023-07-09T01:40:28;17.50;70.50
75621;DHT22;64574;48.506;-2.750;2023-07-09T01:42:55;17.50;70.60
75621;DHT22;64574;48.506;-2.750;2023-07-09T01:45:24;17.70;69.90
75621;DHT22;64574;48.506;-2.750;2023-07-09T01:47:50;17.60;69.90
75621;DHT22;64574;48.506;-2.750;2023-07-09T01:50:15;17.50;70.20
75621;DHT22;64574;48.506;-2.750;2023-07-09T01:52:43;17.60;69.80
75621;DHT22;64574;48.506;-2.750;2023-07-09T01:55:14;17.50;70.10
75621;DHT22;64574;48.506;-2.750;2023-07-09T01:57:42;17.50;69.70
75621;DHT22;64574;48.506;-2.750;2023-07-09T02:00:11;17.50;70.00
75621;DHT22;64574;48.506;-2.750;2023-07-09T02:02:43;17.50;69.90
75621;DHT22;64574;48.506;-2.750;2023-07-09T02:05:09;17.70;69.10
75621;DHT22;64574;48.506;-2.750;2023-07-09T02:07:35;17.80;69.00
75621;DHT22;64574;48.506;-2.750;2023-07-09T02:10:01;17.60;69.00
75621;DHT22;64574;48.506;-2.750;2023-07-09T02:12:27;17.60;68.90
75621;DHT22;64574;48.506;-2.750;2023-07-09T02:14:53;17.60;69.00
75621;DHT22;64574;48.506;-2.750;2023-07-09T02:17:18;17.80;68.50
75621;DHT22;64574;48.506;-2.750;2023-07-09T02:19:44;17.90;68.40
75621;DHT22;64574;48.506;-2.750;2023-07-09T02:22:11;18.00;68.20
75621;DHT22;64574;48.506;-2.750;2023-07-09T02:24:37;18.00;68.20
75621;DHT22;64574;48.506;-2.750;2023-07-09T02:27:06;18.00;68.30
75621;DHT22;64574;48.506;-2.750;2023-07-09T02:29:32;18.00;68.20
75621;DHT22;64574;48.506;-2.750;2023-07-09T02:31:59;17.90;68.50
75621;DHT22;64574;48.506;-2.750;2023-07-09T02:34:26;18.00;68.20
75621;DHT22;64574;48.506;-2.750;2023-07-09T02:36:56;18.00;68.20
75621;DHT22;64574;48.506;-2.750;2023-07-09T02:39:23;18.00;68.20
75621;DHT22;64574;48.506;-2.750;2023-07-09T02:41:49;18.20;67.50
75621;DHT22;64574;48.506;-2.750;2023-07-09T02:44:15;18.30;66.10
75621;DHT22;64574;48.506;-2.750;2023-07-09T02:46:41;18.30;66.00
75621;DHT22;64574;48.506;-2.750;2023-07-09T02:49:10;18.10;66.30
75621;DHT22;64574;48.506;-2.750;2023-07-09T02:51:36;18.20;66.30
75621;DHT22;64574;48.506;-2.750;2023-07-09T02:54:02;18.20;65.90
75621;DHT22;64574;48.506;-2.750;2023-07-09T02:56:28;18.40;66.10
75621;DHT22;64574;48.506;-2.750;2023-07-09T02:58:54;18.50;65.40
75621;DHT22;64574;48.506;-2.750;2023-07-09T03:01:20;18.40;65.40
75621;DHT22;64574;48.506;-2.750;2023-07-09T03:03:50;18.40;66.10
75621;DHT22;64574;48.506;-2.750;2023-07-09T03:06:16;18.40;66.40
75621;DHT22;64574;48.506;-2.750;2023-07-09T03:08:42;18.20;67.30
75621;DHT22;64574;48.506;-2.750;2023-07-09T03:11:11;18.20;67.80
75621;DHT22;64574;48.506;-2.750;2023-07-09T03:13:37;18.30;68.70
75621;DHT22;64574;48.506;-2.750;2023-07-09T03:16:04;18.10;68.60
75621;DHT22;64574;48.506;-2.750;2023-07-09T03:18:30;18.00;69.00
75621;DHT22;64574;48.506;-2.750;2023-07-09T03:20:56;18.00;69.60
75621;DHT22;64574;48.506;-2.750;2023-07-09T03:23:22;18.10;69.30
75621;DHT22;64574;48.506;-2.750;2023-07-09T03:25:47;18.00;69.30
75621;DHT22;64574;48.506;-2.750;2023-07-09T03:28:14;18.00;69.90
75621;DHT22;64574;48.506;-2.750;2023-07-09T03:30:41;18.00;69.90
75621;DHT22;64574;48.506;-2.750;2023-07-09T03:33:07;18.00;69.90
75621;DHT22;64574;48.506;-2.750;2023-07-09T03:35:33;18.00;70.50
75621;DHT22;64574;48.506;-2.750;2023-07-09T03:38:00;18.00;71.10
75621;DHT22;64574;48.506;-2.750;2023-07-09T03:40:26;18.00;71.30
75621;DHT22;64574;48.506;-2.750;2023-07-09T03:42:51;17.80;71.50
75621;DHT22;64574;48.506;-2.750;2023-07-09T03:45:17;17.90;72.20
75621;DHT22;64574;48.506;-2.750;2023-07-09T03:47:42;18.00;72.00
75621;DHT22;64574;48.506;-2.750;2023-07-09T03:50:09;18.00;72.10
75621;DHT22;64574;48.506;-2.750;2023-07-09T03:52:35;17.80;72.50
75621;DHT22;64574;48.506;-2.750;2023-07-09T03:55:01;17.80;72.70
75621;DHT22;64574;48.506;-2.750;2023-07-09T03:57:30;18.00;72.80
75621;DHT22;64574;48.506;-2.750;2023-07-09T03:59:55;18.00;72.70
75621;DHT22;64574;48.506;-2.750;2023-07-09T04:02:21;17.80;72.90
75621;DHT22;64574;48.506;-2.750;2023-07-09T04:04:47;17.60;73.60
75621;DHT22;64574;48.506;-2.750;2023-07-09T04:07:13;17.70;73.60
75621;DHT22;64574;48.506;-2.750;2023-07-09T04:09:38;17.60;73.90
75621;DHT22;64574;48.506;-2.750;2023-07-09T04:12:05;17.50;74.40
75621;DHT22;64574;48.506;-2.750;2023-07-09T04:14:30;17.50;74.60
75621;DHT22;64574;48.506;-2.750;2023-07-09T04:16:56;17.60;74.10
75621;DHT22;64574;48.506;-2.750;2023-07-09T04:19:23;17.60;74.20
75621;DHT22;64574;48.506;-2.750;2023-07-09T04:21:48;17.50;74.60
75621;DHT22;64574;48.506;-2.750;2023-07-09T04:24:16;17.60;75.00
75621;DHT22;64574;48.506;-2.750;2023-07-09T04:26:42;17.60;75.60
75621;DHT22;64574;48.506;-2.750;2023-07-09T04:29:07;17.60;76.30
75621;DHT22;64574;48.506;-2.750;2023-07-09T04:31:33;17.70;76.50
75621;DHT22;64574;48.506;-2.750;2023-07-09T04:33:59;17.90;76.20
75621;DHT22;64574;48.506;-2.750;2023-07-09T04:36:24;17.80;76.40
75621;DHT22;64574;48.506;-2.750;2023-07-09T04:38:51;17.80;77.10
75621;DHT22;64574;48.506;-2.750;2023-07-09T04:41:17;17.90;77.20
75621;DHT22;64574;48.506;-2.750;2023-07-09T04:43:43;17.80;77.90
75621;DHT22;64574;48.506;-2.750;2023-07-09T04:46:09;17.80;78.20
75621;DHT22;64574;48.506;-2.750;2023-07-09T04:48:35;17.80;78.50
75621;DHT22;64574;48.506;-2.750;2023-07-09T04:51:00;17.80;79.20
75621;DHT22;64574;48.506;-2.750;2023-07-09T04:53:26;18.00;79.20
75621;DHT22;64574;48.506;-2.750;2023-07-09T04:55:52;18.10;79.20
75621;DHT22;64574;48.506;-2.750;2023-07-09T04:58:18;18.20;78.50
75621;DHT22;64574;48.506;-2.750;2023-07-09T05:00:46;18.10;78.70
75621;DHT22;64574;48.506;-2.750;2023-07-09T05:03:12;18.10;79.00
75621;DHT22;64574;48.506;-2.750;2023-07-09T05:05:45;18.10;78.50
75621;DHT22;64574;48.506;-2.750;2023-07-09T05:08:12;18.10;77.80
75621;DHT22;64574;48.506;-2.750;2023-07-09T05:10:46;18.20;78.00
75621;DHT22;64574;48.506;-2.750;2023-07-09T05:13:12;18.20;77.90
75621;DHT22;64574;48.506;-2.750;2023-07-09T05:15:45;18.30;77.80
75621;DHT22;64574;48.506;-2.750;2023-07-09T05:18:11;18.30;77.90
75621;DHT22;64574;48.506;-2.750;2023-07-09T05:20:37;18.30;78.00
75621;DHT22;64574;48.506;-2.750;2023-07-09T05:23:03;18.40;78.40
75621;DHT22;64574;48.506;-2.750;2023-07-09T05:25:29;18.40;78.60
75621;DHT22;64574;48.506;-2.750;2023-07-09T05:27:55;18.30;78.90
75621;DHT22;64574;48.506;-2.750;2023-07-09T05:30:20;18.30;79.20
75621;DHT22;64574;48.506;-2.750;2023-07-09T05:32:46;18.30;79.30
75621;DHT22;64574;48.506;-2.750;2023-07-09T05:35:13;18.20;79.20
75621;DHT22;64574;48.506;-2.750;2023-07-09T05:37:38;18.10;79.60
75621;DHT22;64574;48.506;-2.750;2023-07-09T05:40:08;18.10;79.60
75621;DHT22;64574;48.506;-2.750;2023-07-09T05:42:34;18.10;79.70
75621;DHT22;64574;48.506;-2.750;2023-07-09T05:45:00;18.20;79.40
75621;DHT22;64574;48.506;-2.750;2023-07-09T05:47:26;18.10;79.50
75621;DHT22;64574;48.506;-2.750;2023-07-09T05:49:52;18.10;79.40
75621;DHT22;64574;48.506;-2.750;2023-07-09T05:52:22;18.10;79.10
75621;DHT22;64574;48.506;-2.750;2023-07-09T05:54:49;18.10;79.30
75621;DHT22;64574;48.506;-2.750;2023-07-09T05:57:15;18.00;79.40
75621;DHT22;64574;48.506;-2.750;2023-07-09T05:59:40;18.10;79.50
75621;DHT22;64574;48.506;-2.750;2023-07-09T06:02:13;18.10;79.20
75621;DHT22;64574;48.506;-2.750;2023-07-09T06:04:39;18.00;79.10
75621;DHT22;64574;48.506;-2.750;2023-07-09T06:07:05;18.00;79.20
75621;DHT22;64574;48.506;-2.750;2023-07-09T06:09:31;18.10;78.90
75621;DHT22;64574;48.506;-2.750;2023-07-09T06:11:57;18.00;79.20
75621;DHT22;64574;48.506;-2.750;2023-07-09T06:14:23;18.00;79.20
75621;DHT22;64574;48.506;-2.750;2023-07-09T06:16:48;18.00;79.20
75621;DHT22;64574;48.506;-2.750;2023-07-09T06:19:14;18.00;78.90
75621;DHT22;64574;48.506;-2.750;2023-07-09T06:21:40;18.00;78.60
75621;DHT22;64574;48.506;-2.750;2023-07-09T06:24:07;18.00;78.90
75621;DHT22;64574;48.506;-2.750;2023-07-09T06:26:33;18.00;78.70
75621;DHT22;64574;48.506;-2.750;2023-07-09T06:28:59;18.00;78.50
75621;DHT22;64574;48.506;-2.750;2023-07-09T06:31:25;18.00;79.00
75621;DHT22;64574;48.506;-2.750;2023-07-09T06:33:51;18.00;78.90
75621;DHT22;64574;48.506;-2.750;2023-07-09T06:36:17;18.00;79.00
75621;DHT22;64574;48.506;-2.750;2023-07-09T06:38:43;18.00;78.70
75621;DHT22;64574;48.506;-2.750;2023-07-09T06:41:09;18.00;78.50
75621;DHT22;64574;48.506;-2.750;2023-07-09T06:43:35;18.00;79.00
75621;DHT22;64574;48.506;-2.750;2023-07-09T06:46:04;18.10;78.10
75621;DHT22;64574;48.506;-2.750;2023-07-09T06:48:31;18.10;78.30
75621;DHT22;64574;48.506;-2.750;2023-07-09T06:50:57;18.10;77.90
75621;DHT22;64574;48.506;-2.750;2023-07-09T06:53:23;18.10;77.90
75621;DHT22;64574;48.506;-2.750;2023-07-09T06:55:49;18.10;78.10
75621;DHT22;64574;48.506;-2.750;2023-07-09T06:58:16;18.10;78.40
75621;DHT22;64574;48.506;-2.750;2023-07-09T07:00:42;18.20;77.80
75621;DHT22;64574;48.506;-2.750;2023-07-09T07:03:09;18.20;78.30
75621;DHT22;64574;48.506;-2.750;2023-07-09T07:05:35;18.20;78.00
75621;DHT22;64574;48.506;-2.750;2023-07-09T07:08:02;18.10;77.70
75621;DHT22;64574;48.506;-2.750;2023-07-09T07:10:29;18.20;77.40
75621;DHT22;64574;48.506;-2.750;2023-07-09T07:12:55;18.30;77.40
75621;DHT22;64574;48.506;-2.750;2023-07-09T07:15:21;18.40;77.00
75621;DHT22;64574;48.506;-2.750;2023-07-09T07:17:48;18.20;77.10
75621;DHT22;64574;48.506;-2.750;2023-07-09T07:20:14;18.20;77.30
75621;DHT22;64574;48.506;-2.750;2023-07-09T07:22:41;18.20;77.90
75621;DHT22;64574;48.506;-2.750;2023-07-09T07:25:07;18.20;77.60
75621;DHT22;64574;48.506;-2.750;2023-07-09T07:27:34;18.40;77.30
75621;DHT22;64574;48.506;-2.750;2023-07-09T07:30:00;18.30;77.40
75621;DHT22;64574;48.506;-2.750;2023-07-09T07:32:26;18.40;77.20
75621;DHT22;64574;48.506;-2.750;2023-07-09T07:34:52;18.30;77.60
75621;DHT22;64574;48.506;-2.750;2023-07-09T07:37:19;18.30;78.10
75621;DHT22;64574;48.506;-2.750;2023-07-09T07:39:48;18.50;77.60
75621;DHT22;64574;48.506;-2.750;2023-07-09T07:42:14;18.40;77.10
75621;DHT22;64574;48.506;-2.750;2023-07-09T07:44:40;18.50;77.60
75621;DHT22;64574;48.506;-2.750;2023-07-09T07:47:06;18.50;77.80
75621;DHT22;64574;48.506;-2.750;2023-07-09T07:49:32;18.70;77.70
75621;DHT22;64574;48.506;-2.750;2023-07-09T07:51:57;18.80;77.40
75621;DHT22;64574;48.506;-2.750;2023-07-09T07:54:23;19.00;76.70
75621;DHT22;64574;48.506;-2.750;2023-07-09T07:56:49;19.00;76.60
75621;DHT22;64574;48.506;-2.750;2023-07-09T07:59:16;19.20;76.70
75621;DHT22;64574;48.506;-2.750;2023-07-09T08:01:42;19.20;76.60
75621;DHT22;64574;48.506;-2.750;2023-07-09T08:04:08;19.30;75.90
75621;DHT22;64574;48.506;-2.750;2023-07-09T08:06:33;19.30;75.60
75621;DHT22;64574;48.506;-2.750;2023-07-09T08:08:59;19.30;76.10
75621;DHT22;64574;48.506;-2.750;2023-07-09T08:11:25;19.40;76.10
75621;DHT22;64574;48.506;-2.750;2023-07-09T08:13:51;19.50;75.50
75621;DHT22;64574;48.506;-2.750;2023-07-09T08:16:17;19.60;74.90
75621;DHT22;64574;48.506;-2.750;2023-07-09T08:18:42;19.70;74.50
75621;DHT22;64574;48.506;-2.750;2023-07-09T08:21:08;19.70;73.90
75621;DHT22;64574;48.506;-2.750;2023-07-09T08:23:34;19.80;74.00
75621;DHT22;64574;48.506;-2.750;2023-07-09T08:26:01;19.70;74.30
75621;DHT22;64574;48.506;-2.750;2023-07-09T08:28:28;19.50;74.50
75621;DHT22;64574;48.506;-2.750;2023-07-09T08:30:55;19.50;73.80
75621;DHT22;64574;48.506;-2.750;2023-07-09T08:33:21;19.50;74.00
75621;DHT22;64574;48.506;-2.750;2023-07-09T08:35:52;19.60;73.70
75621;DHT22;64574;48.506;-2.750;2023-07-09T08:38:18;19.70;73.40
75621;DHT22;64574;48.506;-2.750;2023-07-09T08:41:06;19.70;73.60
75621;DHT22;64574;48.506;-2.750;2023-07-09T08:43:54;19.90;73.40
75621;DHT22;64574;48.506;-2.750;2023-07-09T08:46:34;19.90;73.60
75621;DHT22;64574;48.506;-2.750;2023-07-09T08:49:02;19.90;72.70
75621;DHT22;64574;48.506;-2.750;2023-07-09T08:51:35;20.00;73.10
75621;DHT22;64574;48.506;-2.750;2023-07-09T08:54:03;20.00;71.70
75621;DHT22;64574;48.506;-2.750;2023-07-09T08:56:32;20.10;71.20
75621;DHT22;64574;48.506;-2.750;2023-07-09T08:59:01;20.20;70.60
75621;DHT22;64574;48.506;-2.750;2023-07-09T09:01:52;20.30;71.30
75621;DHT22;64574;48.506;-2.750;2023-07-09T09:04:25;20.20;71.20
75621;DHT22;64574;48.506;-2.750;2023-07-09T09:09:28;20.00;71.60
75621;DHT22;64574;48.506;-2.750;2023-07-09T09:14:41;20.10;72.30
75621;DHT22;64574;48.506;-2.750;2023-07-09T09:17:16;20.30;72.00
75621;DHT22;64574;48.506;-2.750;2023-07-09T09:19:53;20.40;71.60
75621;DHT22;64574;48.506;-2.750;2023-07-09T09:22:46;20.60;69.90
75621;DHT22;64574;48.506;-2.750;2023-07-09T09:27:45;20.70;69.20
75621;DHT22;64574;48.506;-2.750;2023-07-09T09:30:15;20.50;67.90
75621;DHT22;64574;48.506;-2.750;2023-07-09T09:32:58;20.60;66.50
75621;DHT22;64574;48.506;-2.750;2023-07-09T09:35:44;20.50;67.10
75621;DHT22;64574;48.506;-2.750;2023-07-09T09:38:24;20.80;67.00
75621;DHT22;64574;48.506;-2.750;2023-07-09T09:40:50;20.70;65.90
75621;DHT22;64574;48.506;-2.750;2023-07-09T09:43:18;20.90;65.70
75621;DHT22;64574;48.506;-2.750;2023-07-09T09:45:48;21.10;66.00
75621;DHT22;64574;48.506;-2.750;2023-07-09T09:48:39;21.10;65.30
75621;DHT22;64574;48.506;-2.750;2023-07-09T09:51:04;21.10;64.20
75621;DHT22;64574;48.506;-2.750;2023-07-09T09:53:39;21.20;64.00
75621;DHT22;64574;48.506;-2.750;2023-07-09T09:56:13;21.10;63.60
75621;DHT22;64574;48.506;-2.750;2023-07-09T09:58:40;21.00;61.60
75621;DHT22;64574;48.506;-2.750;2023-07-09T10:01:11;21.10;61.40
75621;DHT22;64574;48.506;-2.750;2023-07-09T10:03:38;21.10;62.20
75621;DHT22;64574;48.506;-2.750;2023-07-09T10:06:21;21.30;62.10
75621;DHT22;64574;48.506;-2.750;2023-07-09T10:11:28;21.30;60.20
75621;DHT22;64574;48.506;-2.750;2023-07-09T10:13:57;21.30;59.00
75621;DHT22;64574;48.506;-2.750;2023-07-09T10:16:38;21.30;59.50
75621;DHT22;64574;48.506;-2.750;2023-07-09T10:19:16;21.50;59.60
75621;DHT22;64574;48.506;-2.750;2023-07-09T10:27:26;21.90;56.60
75621;DHT22;64574;48.506;-2.750;2023-07-09T10:30:13;21.90;56.60
75621;DHT22;64574;48.506;-2.750;2023-07-09T10:33:02;22.10;58.00
75621;DHT22;64574;48.506;-2.750;2023-07-09T10:35:41;22.00;57.80
75621;DHT22;64574;48.506;-2.750;2023-07-09T10:40:59;22.00;57.60
75621;DHT22;64574;48.506;-2.750;2023-07-09T10:43:50;21.80;57.60
75621;DHT22;64574;48.506;-2.750;2023-07-09T10:46:22;21.90;57.30
75621;DHT22;64574;48.506;-2.750;2023-07-09T10:48:51;21.90;56.10
75621;DHT22;64574;48.506;-2.750;2023-07-09T10:51:31;21.90;56.70
75621;DHT22;64574;48.506;-2.750;2023-07-09T10:56:39;22.10;56.30
75621;DHT22;64574;48.506;-2.750;2023-07-09T11:01:40;22.30;55.60
75621;DHT22;64574;48.506;-2.750;2023-07-09T11:04:17;22.50;55.50
75621;DHT22;64574;48.506;-2.750;2023-07-09T11:06:48;22.50;55.20
75621;DHT22;64574;48.506;-2.750;2023-07-09T11:09:36;22.40;55.00
75621;DHT22;64574;48.506;-2.750;2023-07-09T11:12:08;22.30;55.90
75621;DHT22;64574;48.506;-2.750;2023-07-09T11:14:52;22.20;55.80
75621;DHT22;64574;48.506;-2.750;2023-07-09T11:17:20;22.10;56.10
75621;DHT22;64574;48.506;-2.750;2023-07-09T11:19:48;22.20;56.70
75621;DHT22;64574;48.506;-2.750;2023-07-09T11:22:36;22.20;56.50
75621;DHT22;64574;48.506;-2.750;2023-07-09T11:27:31;22.00;56.70
75621;DHT22;64574;48.506;-2.750;2023-07-09T11:30:02;21.90;57.20
75621;DHT22;64574;48.506;-2.750;2023-07-09T11:32:30;21.70;57.10
75621;DHT22;64574;48.506;-2.750;2023-07-09T11:35:07;21.50;57.70
75621;DHT22;64574;48.506;-2.750;2023-07-09T11:37:44;21.50;57.50
75621;DHT22;64574;48.506;-2.750;2023-07-09T11:40:12;21.40;58.20
75621;DHT22;64574;48.506;-2.750;2023-07-09T11:42:55;20.70;64.20
75621;DHT22;64574;48.506;-2.750;2023-07-09T11:45:31;20.30;67.50
75621;DHT22;64574;48.506;-2.750;2023-07-09T11:50:40;20.80;66.10
75621;DHT22;64574;48.506;-2.750;2023-07-09T11:56:11;21.50;63.50
75621;DHT22;64574;48.506;-2.750;2023-07-09T11:58:50;21.40;63.60
75621;DHT22;64574;48.506;-2.750;2023-07-09T12:01:19;21.50;63.50
75621;DHT22;64574;48.506;-2.750;2023-07-09T12:03:46;21.30;63.40
75621;DHT22;64574;48.506;-2.750;2023-07-09T12:06:24;21.40;62.90
75621;DHT22;64574;48.506;-2.750;2023-07-09T12:08:52;21.30;62.70
75621;DHT22;64574;48.506;-2.750;2023-07-09T12:13:52;21.30;64.80
75621;DHT22;64574;48.506;-2.750;2023-07-09T12:18:46;20.80;66.10
75621;DHT22;64574;48.506;-2.750;2023-07-09T12:21:12;21.10;65.40
75621;DHT22;64574;48.506;-2.750;2023-07-09T12:23:40;21.50;66.20
75621;DHT22;64574;48.506;-2.750;2023-07-09T12:26:10;22.00;65.40
75621;DHT22;64574;48.506;-2.750;2023-07-09T12:28:36;22.30;63.80
75621;DHT22;64574;48.506;-2.750;2023-07-09T12:31:02;22.40;62.10
75621;DHT22;64574;48.506;-2.750;2023-07-09T12:33:28;22.30;60.60
75621;DHT22;64574;48.506;-2.750;2023-07-09T12:35:58;22.30;61.40
75621;DHT22;64574;48.506;-2.750;2023-07-09T12:38:26;22.50;60.30
75621;DHT22;64574;48.506;-2.750;2023-07-09T12:40:54;22.40;60.30
75621;DHT22;64574;48.506;-2.750;2023-07-09T12:43:28;22.50;60.50
75621;DHT22;64574;48.506;-2.750;2023-07-09T12:45:56;22.50;60.90
75621;DHT22;64574;48.506;-2.750;2023-07-09T12:48:24;22.20;61.60
75621;DHT22;64574;48.506;-2.750;2023-07-09T12:50:51;22.20;61.10
75621;DHT22;64574;48.506;-2.750;2023-07-09T12:53:19;22.30;60.80
75621;DHT22;64574;48.506;-2.750;2023-07-09T12:55:47;22.30;61.30
75621;DHT22;64574;48.506;-2.750;2023-07-09T12:58:20;22.30;60.10
75621;DHT22;64574;48.506;-2.750;2023-07-09T13:00:48;22.40;60.70
75621;DHT22;64574;48.506;-2.750;2023-07-09T13:03:20;22.50;59.70
75621;DHT22;64574;48.506;-2.750;2023-07-09T13:06:02;22.60;59.90
75621;DHT22;64574;48.506;-2.750;2023-07-09T13:08:32;22.50;58.60
75621;DHT22;64574;48.506;-2.750;2023-07-09T13:11:00;22.60;58.00
75621;DHT22;64574;48.506;-2.750;2023-07-09T13:13:25;22.70;57.00
75621;DHT22;64574;48.506;-2.750;2023-07-09T13:15:59;22.80;57.10
75621;DHT22;64574;48.506;-2.750;2023-07-09T13:18:27;22.80;57.30
75621;DHT22;64574;48.506;-2.750;2023-07-09T13:20:55;22.80;56.60
75621;DHT22;64574;48.506;-2.750;2023-07-09T13:23:28;22.70;57.10
75621;DHT22;64574;48.506;-2.750;2023-07-09T13:25:56;22.70;57.10
75621;DHT22;64574;48.506;-2.750;2023-07-09T13:28:29;22.70;57.60
75621;DHT22;64574;48.506;-2.750;2023-07-09T13:31:00;22.80;57.00
75621;DHT22;64574;48.506;-2.750;2023-07-09T13:33:29;22.80;57.20
75621;DHT22;64574;48.506;-2.750;2023-07-09T13:35:57;22.70;57.10
75621;DHT22;64574;48.506;-2.750;2023-07-09T13:38:24;22.80;56.50
75621;DHT22;64574;48.506;-2.750;2023-07-09T13:40:54;23.10;55.90
75621;DHT22;64574;48.506;-2.750;2023-07-09T13:43:30;23.20;56.10
75621;DHT22;64574;48.506;-2.750;2023-07-09T13:45:56;23.00;54.00
75621;DHT22;64574;48.506;-2.750;2023-07-09T13:48:23;23.00;54.40
75621;DHT22;64574;48.506;-2.750;2023-07-09T13:50:51;23.10;53.50
75621;DHT22;64574;48.506;-2.750;2023-07-09T13:53:24;23.10;52.70
75621;DHT22;64574;48.506;-2.750;2023-07-09T13:55:50;23.00;52.50
75621;DHT22;64574;48.506;-2.750;2023-07-09T13:58:20;22.90;52.00
75621;DHT22;64574;48.506;-2.750;2023-07-09T14:00:47;23.00;52.20
75621;DHT22;64574;48.506;-2.750;2023-07-09T14:03:25;23.10;51.60
75621;DHT22;64574;48.506;-2.750;2023-07-09T14:05:51;23.30;51.90
75621;DHT22;64574;48.506;-2.750;2023-07-09T14:08:17;23.40;51.50
75621;DHT22;64574;48.506;-2.750;2023-07-09T14:10:45;23.30;51.40
75621;DHT22;64574;48.506;-2.750;2023-07-09T14:13:15;23.30;50.60
75621;DHT22;64574;48.506;-2.750;2023-07-09T14:15:41;23.40;49.90
75621;DHT22;64574;48.506;-2.750;2023-07-09T14:18:15;23.50;48.30
75621;DHT22;64574;48.506;-2.750;2023-07-09T14:20:42;23.70;47.40
75621;DHT22;64574;48.506;-2.750;2023-07-09T14:23:13;23.60;48.80
75621;DHT22;64574;48.506;-2.750;2023-07-09T14:25:40;23.70;49.10
75621;DHT22;64574;48.506;-2.750;2023-07-09T14:28:17;23.80;48.50
75621;DHT22;64574;48.506;-2.750;2023-07-09T14:30:44;23.70;48.40
75621;DHT22;64574;48.506;-2.750;2023-07-09T14:33:16;23.90;49.00
75621;DHT22;64574;48.506;-2.750;2023-07-09T14:35:43;23.90;48.30
75621;DHT22;64574;48.506;-2.750;2023-07-09T14:40:44;24.10;48.30
75621;DHT22;64574;48.506;-2.750;2023-07-09T14:43:11;24.00;47.70
75621;DHT22;64574;48.506;-2.750;2023-07-09T14:45:36;24.00;47.80
75621;DHT22;64574;48.506;-2.750;2023-07-09T14:48:15;24.20;48.30
75621;DHT22;64574;48.506;-2.750;2023-07-09T14:50:41;24.30;48.00
75621;DHT22;64574;48.506;-2.750;2023-07-09T14:53:15;24.20;47.50
75621;DHT22;64574;48.506;-2.750;2023-07-09T14:55:42;24.20;47.70
75621;DHT22;64574;48.506;-2.750;2023-07-09T14:58:11;24.20;47.70
75621;DHT22;64574;48.506;-2.750;2023-07-09T15:00:39;24.20;46.90
75621;DHT22;64574;48.506;-2.750;2023-07-09T15:03:09;24.20;46.80
75621;DHT22;64574;48.506;-2.750;2023-07-09T15:05:35;24.50;48.50
75621;DHT22;64574;48.506;-2.750;2023-07-09T15:08:10;24.60;49.20
75621;DHT22;64574;48.506;-2.750;2023-07-09T15:10:37;24.60;49.70
75621;DHT22;64574;48.506;-2.750;2023-07-09T15:13:03;24.60;50.20
75621;DHT22;64574;48.506;-2.750;2023-07-09T15:15:30;24.60;51.20
75621;DHT22;64574;48.506;-2.750;2023-07-09T15:17:59;24.70;51.60
75621;DHT22;64574;48.506;-2.750;2023-07-09T15:20:26;24.70;51.30
75621;DHT22;64574;48.506;-2.750;2023-07-09T15:22:54;25.00;50.70
75621;DHT22;64574;48.506;-2.750;2023-07-09T15:25:23;24.70;50.30
75621;DHT22;64574;48.506;-2.750;2023-07-09T15:27:49;24.60;50.00
75621;DHT22;64574;48.506;-2.750;2023-07-09T15:30:21;24.60;50.20
75621;DHT22;64574;48.506;-2.750;2023-07-09T15:32:48;25.00;50.00
75621;DHT22;64574;48.506;-2.750;2023-07-09T15:35:16;25.00;48.80
75621;DHT22;64574;48.506;-2.750;2023-07-09T15:37:42;25.00;48.90
75621;DHT22;64574;48.506;-2.750;2023-07-09T15:40:28;25.00;49.80
75621;DHT22;64574;48.506;-2.750;2023-07-09T15:42:57;25.00;50.30
75621;DHT22;64574;48.506;-2.750;2023-07-09T15:45:23;25.00;50.50
75621;DHT22;64574;48.506;-2.750;2023-07-09T15:47:51;25.20;50.20
75621;DHT22;64574;48.506;-2.750;2023-07-09T15:50:22;24.80;50.60
75621;DHT22;64574;48.506;-2.750;2023-07-09T15:52:49;24.50;51.00
75621;DHT22;64574;48.506;-2.750;2023-07-09T15:55:22;24.60;50.60
75621;DHT22;64574;48.506;-2.750;2023-07-09T15:57:50;25.10;49.80
75621;DHT22;64574;48.506;-2.750;2023-07-09T16:00:25;25.10;48.50
75621;DHT22;64574;48.506;-2.750;2023-07-09T16:02:53;25.40;49.20
75621;DHT22;64574;48.506;-2.750;2023-07-09T16:07:44;25.10;46.60